Time;durP1;ratioP1;P1;durP2;ratioP2;P2;SDS_P1;SDS_P2;PMS_P1;PMS_P2;Temp;Humidity;BMP_temperature;BMP_pressure;BME280_temperature;BME280_humidity;BME280_pressure;Samples;Min_cycle;Max_cycle;Signal;HPM_P1;HPM_P2
2021/07/07 00:00:14;;;;;;;11.07;7.90;;;;;;;20.97;90.13;100503.92;1657657;86;22262;-75
2021/07/07 00:02:41;;;;;;;10.43;7.80;;;;;;;20.93;90.05;100511.14;1660917;86;21112;-75
2021/07/07 00:05:10;;;;;;;11.57;7.80;;;;;;;20.89;90.03;100514.25;1658046;85;21067;-76
2021/07/07 00:07:37;;;;;;;9.73;7.50;;;;;;;20.87;90.01;100519.80;1660189;85;21099;-75
2021/07/07 00:10:06;;;;;;;10.30;7.23;;;;;;;20.82;90.10;100516.12;1657329;86;21104;-74
2021/07/07 00:12:32;;;;;;;10.33;6.93;;;;;;;20.77;90.10;100513.61;1658020;86;21227;-76
2021/07/07 00:14:59;;;;;;;9.93;7.63;;;;;;;20.73;90.09;100520.81;1656388;85;21095;-75
2021/07/07 00:17:27;;;;;;;9.00;7.20;;;;;;;20.69;90.19;100523.92;1658769;85;21099;-74
2021/07/07 00:19:54;;;;;;;10.17;7.93;;;;;;;20.69;90.37;100523.92;1643546;85;21052;-75
2021/07/07 00:22:21;;;;;;;13.23;8.07;;;;;;;20.66;90.42;100523.78;1654615;86;21635;-74
2021/07/07 00:24:48;;;;;;;9.00;7.67;;;;;;;20.67;90.61;100521.32;1656018;85;21162;-75
2021/07/07 00:27:14;;;;;;;11.13;8.43;;;;;;;20.66;90.68;100520.50;1659344;86;21055;-74
2021/07/07 00:29:42;;;;;;;9.37;7.70;;;;;;;20.69;90.69;100523.92;1659944;86;21136;-74
2021/07/07 00:32:09;;;;;;;8.60;7.13;;;;;;;20.69;90.56;100525.84;1657367;86;21118;-74
2021/07/07 00:34:37;;;;;;;11.37;7.80;;;;;;;20.66;90.49;100522.42;1640812;85;21566;-73
2021/07/07 00:37:04;;;;;;;11.97;8.07;;;;;;;20.62;90.46;100526.34;1658720;84;21626;-73
2021/07/07 00:39:31;;;;;;;10.10;7.20;;;;;;;20.60;90.62;100529.41;1653724;86;21083;-74
2021/07/07 00:41:58;;;;;;;9.43;8.20;;;;;;;20.57;90.83;100523.83;1662753;85;21222;-74
2021/07/07 00:44:25;;;;;;;9.40;8.10;;;;;;;20.54;91.07;100524.48;1659676;85;21071;-75
2021/07/07 00:46:52;;;;;;;9.53;7.60;;;;;;;20.53;91.36;100527.76;1657742;84;21845;-75
2021/07/07 00:49:19;;;;;;;10.63;8.20;;;;;;;20.54;91.49;100528.55;1653922;86;21232;-75
2021/07/07 00:51:47;;;;;;;9.90;7.60;;;;;;;20.52;91.55;100523.43;1658400;86;21079;-75
2021/07/07 00:54:15;;;;;;;11.17;7.87;;;;;;;20.55;91.68;100527.42;1659939;85;21163;-75
2021/07/07 00:56:43;;;;;;;8.47;7.60;;;;;;;20.55;91.72;100528.20;1658639;85;21131;-74
2021/07/07 00:59:09;;;;;;;9.30;8.20;;;;;;;20.55;91.80;100529.56;1663851;85;21599;-76
2021/07/07 01:01:39;;;;;;;9.87;7.67;;;;;;;20.55;91.88;100526.85;1659238;85;21087;-75
2021/07/07 01:04:06;;;;;;;10.40;7.93;;;;;;;20.55;91.94;100527.42;1654369;85;21115;-74
2021/07/07 01:06:32;;;;;;;8.50;7.60;;;;;;;20.55;92.01;100528.77;1657486;85;21068;-74
2021/07/07 01:08:59;;;;;;;10.27;7.80;;;;;;;20.53;92.01;100530.47;1654848;85;21104;-75
2021/07/07 01:11:25;;;;;;;8.70;7.23;;;;;;;20.53;92.05;100527.76;1658344;85;21071;-75
2021/07/07 01:13:54;;;;;;;8.90;7.87;;;;;;;20.53;91.78;100530.47;1657718;85;21015;-75
2021/07/07 01:16:20;;;;;;;9.10;7.00;;;;;;;20.53;91.70;100529.11;1658006;85;21067;-75
2021/07/07 01:18:49;;;;;;;9.03;7.87;;;;;;;20.53;91.67;100529.65;1658929;86;21076;-75
2021/07/07 01:21:16;;;;;;;9.77;7.20;;;;;;;20.52;91.47;100530.21;1659291;85;21594;-75
2021/07/07 01:23:44;;;;;;;8.83;7.93;;;;;;;20.53;91.39;100537.78;1627982;87;21966;-74
2021/07/07 01:26:10;;;;;;;10.03;7.57;;;;;;;20.53;91.21;100533.72;1655532;85;21079;-75
2021/07/07 01:28:37;;;;;;;12.30;8.03;;;;;;;20.54;91.08;100532.62;1656658;85;21519;-74
2021/07/07 01:31:04;;;;;;;8.07;7.07;;;;;;;20.55;91.17;100543.70;1657435;86;21120;-73
2021/07/07 01:33:32;;;;;;;8.70;7.10;;;;;;;20.54;91.07;100536.69;1657995;86;21217;-73
2021/07/07 01:35:59;;;;;;;10.70;7.73;;;;;;;20.52;90.96;100541.06;1656932;85;21686;-73
2021/07/07 01:38:26;;;;;;;10.60;8.23;;;;;;;20.50;90.88;100543.83;1654152;86;21828;-73
2021/07/07 01:40:57;;;;;;;10.80;7.67;;;;;;;20.48;90.77;100544.73;1659475;85;21123;-73
2021/07/07 01:43:24;;;;;;;8.60;7.25;;;;;;;20.47;90.60;100548.02;1662127;86;21002;-73
2021/07/07 01:45:51;;;;;;;8.87;7.37;;;;;;;20.47;90.41;100549.93;1653070;85;21135;-74
2021/07/07 01:48:18;;;;;;;9.10;7.40;;;;;;;20.45;90.19;100549.45;1660289;85;21127;-73
2021/07/07 01:50:46;;;;;;;9.23;7.70;;;;;;;20.43;89.88;100553.03;1658225;86;21040;-73
2021/07/07 01:53:14;;;;;;;8.60;7.17;;;;;;;20.40;89.59;100550.43;1660758;86;21100;-73
2021/07/07 01:55:41;;;;;;;9.87;7.27;;;;;;;20.37;89.32;100557.85;1657753;85;21107;-74
2021/07/07 01:58:09;;;;;;;9.97;7.60;;;;;;;20.33;89.12;100561.74;1658608;85;21215;-73
2021/07/07 02:00:35;;;;;;;10.17;7.40;;;;;;;20.30;89.02;100564.30;1652418;86;21584;-74
2021/07/07 02:03:02;;;;;;;9.07;6.87;;;;;;;20.27;88.93;100560.88;1657842;86;21119;-74
2021/07/07 02:05:35;;;;;;;9.17;7.47;;;;;;;20.26;88.83;100560.09;1658550;85;21120;-74
2021/07/07 02:08:05;;;;;;;9.53;7.27;;;;;;;20.25;88.72;100569.91;1658636;85;21626;-75
2021/07/07 02:10:33;;;;;;;10.07;7.63;;;;;;;20.22;88.64;100571.91;1654480;85;21052;-73
2021/07/07 02:13:01;;;;;;;9.73;7.97;;;;;;;20.22;88.72;100569.20;1661263;84;21571;-75
2021/07/07 02:15:32;;;;;;;9.50;7.60;;;;;;;20.22;88.67;100574.62;1645062;86;21206;-75
2021/07/07 02:17:59;;;;;;;10.13;7.95;;;;;;;20.22;88.59;100578.12;1659090;85;21607;-75
2021/07/07 02:20:29;;;;;;;10.23;7.43;;;;;;;20.22;88.49;100575.98;1659461;86;21112;-75
2021/07/07 02:22:55;;;;;;;9.83;7.77;;;;;;;20.23;88.41;100580.27;1658985;85;21535;-73
2021/07/07 02:25:25;;;;;;;10.00;7.50;;;;;;;20.24;88.31;100582.69;1660260;85;21088;-73
2021/07/07 02:27:53;;;;;;;8.57;7.67;;;;;;;20.25;88.13;100586.98;1657177;86;21068;-74
2021/07/07 02:30:24;;;;;;;10.97;7.60;;;;;;;20.25;87.99;100588.90;1659635;86;21083;-73
2021/07/07 02:32:51;;;;;;;10.47;7.37;;;;;;;20.22;87.91;100583.55;1661957;86;21055;-73
2021/07/07 02:35:23;;;;;;;9.20;7.33;;;;;;;20.22;87.89;100591.69;1657664;85;21100;-73
2021/07/07 02:37:50;;;;;;;13.40;7.42;;;;;;;20.23;87.86;100589.20;1651414;85;21258;-74
2021/07/07 02:40:18;;;;;;;9.10;7.70;;;;;;;20.25;87.76;100591.61;1661779;85;21168;-73
2021/07/07 02:42:45;;;;;;;10.23;7.33;;;;;;;20.25;87.62;100591.61;1660512;84;21051;-74
2021/07/07 02:45:13;;;;;;;11.40;7.80;;;;;;;20.26;87.48;100594.55;1659002;85;21115;-73
2021/07/07 02:47:40;;;;;;;9.50;7.73;;;;;;;20.26;87.21;100599.41;1661701;85;21082;-73
2021/07/07 02:50:09;;;;;;;9.63;7.13;;;;;;;20.25;87.03;100599.19;1645196;86;21974;-73
2021/07/07 02:52:39;;;;;;;8.47;6.77;;;;;;;20.25;86.87;100601.89;1646650;86;21083;-74
2021/07/07 02:55:13;;;;;;;8.60;7.30;;;;;;;20.25;86.63;100598.39;1663209;85;21044;-74
2021/07/07 03:00:32;;;;;;;9.43;7.70;;;;;;;20.24;86.24;100603.59;1659471;86;21092;-74
2021/07/07 03:03:08;;;;;;;9.57;8.10;;;;;;;20.20;85.99;100604.76;1653750;86;22192;-73
2021/07/07 03:05:39;;;;;;;9.00;7.93;;;;;;;20.19;85.89;100613.23;1655442;85;21075;-74
2021/07/07 03:08:06;;;;;;;10.93;8.30;;;;;;;20.18;85.99;100613.00;1660321;86;21139;-74
2021/07/07 03:10:32;;;;;;;8.83;7.80;;;;;;;20.16;86.08;100616.02;1659573;85;21073;-74
2021/07/07 03:12:59;;;;;;;9.53;8.10;;;;;;;20.19;86.21;100621.36;1661583;86;21083;-73
2021/07/07 03:15:27;;;;;;;9.93;8.30;;;;;;;20.19;86.35;100626.23;1663313;85;21578;-73
2021/07/07 03:17:55;;;;;;;10.30;8.60;;;;;;;20.17;86.39;100624.95;1657245;86;21076;-74
2021/07/07 03:20:22;;;;;;;10.90;8.03;;;;;;;20.17;86.45;100631.19;1667370;86;21008;-74
2021/07/07 03:22:49;;;;;;;9.73;8.27;;;;;;;20.15;86.41;100629.34;1664297;84;21014;-73
2021/07/07 03:25:15;;;;;;;9.50;8.47;;;;;;;20.13;86.24;100632.92;1667698;83;20989;-72
2021/07/07 03:27:42;;;;;;;9.30;8.37;;;;;;;20.12;86.17;100634.05;1661026;85;21282;-74
2021/07/07 03:30:11;;;;;;;9.83;8.83;;;;;;;20.12;86.11;100628.62;1666734;85;21092;-73
2021/07/07 03:32:37;;;;;;;9.53;8.27;;;;;;;20.13;86.11;100628.30;1662689;86;21079;-74
2021/07/07 03:35:06;;;;;;;11.90;8.60;;;;;;;20.17;86.06;100632.55;1661927;84;21132;-73
2021/07/07 03:37:32;;;;;;;10.70;8.13;;;;;;;20.18;85.90;100640.91;1657527;85;21939;-73
2021/07/07 03:39:59;;;;;;;10.57;8.70;;;;;;;20.18;85.79;100640.13;1654127;85;21152;-74
2021/07/07 03:42:28;;;;;;;8.77;7.57;;;;;;;20.19;85.70;100644.42;1642418;86;21055;-74
2021/07/07 03:44:55;;;;;;;10.80;8.43;;;;;;;20.20;85.54;100648.16;1657505;86;21064;-73
2021/07/07 03:47:22;;;;;;;9.60;8.20;;;;;;;20.19;85.43;100650.63;1657630;85;21131;-73
2021/07/07 03:49:49;;;;;;;8.37;7.57;;;;;;;20.20;85.24;100646.80;1660402;86;21032;-73
2021/07/07 03:52:16;;;;;;;7.63;6.80;;;;;;;20.25;85.03;100651.28;1659440;86;21152;-73
2021/07/07 03:54:43;;;;;;;8.60;7.70;;;;;;;20.30;84.85;100657.35;1657761;84;21127;-74
2021/07/07 03:57:10;;;;;;;8.37;7.50;;;;;;;20.35;84.66;100656.38;1651418;85;21528;-74
2021/07/07 03:59:36;;;;;;;8.53;7.60;;;;;;;20.42;84.54;100649.11;1658722;85;21077;-74
2021/07/07 04:02:03;;;;;;;7.70;6.30;;;;;;;20.51;84.16;100644.52;1659583;84;21057;-74
2021/07/07 04:04:30;;;;;;;7.83;6.27;;;;;;;20.60;83.61;100654.80;1661919;86;21575;-74
2021/07/07 04:07:00;;;;;;;7.10;6.20;;;;;;;20.69;82.86;100654.20;1658813;85;21059;-73
2021/07/07 04:09:28;;;;;;;7.33;6.00;;;;;;;20.77;82.22;100653.97;1656653;86;21056;-73
2021/07/07 04:11:56;;;;;;;6.83;5.93;;;;;;;20.87;81.77;100649.55;1662086;85;21044;-73
2021/07/07 04:14:24;;;;;;;6.60;5.80;;;;;;;20.96;81.20;100657.11;1661403;86;21123;-73
2021/07/07 04:16:52;;;;;;;7.13;5.03;;;;;;;21.06;80.45;100651.32;1657871;85;21108;-73
2021/07/07 04:19:19;;;;;;;9.40;5.60;;;;;;;21.16;80.00;100652.88;1658540;85;21548;-75
2021/07/07 04:21:47;;;;;;;6.00;5.30;;;;;;;21.24;79.20;100656.67;1661263;86;21567;-74
2021/07/07 04:24:14;;;;;;;7.00;5.43;;;;;;;21.29;78.55;100656.51;1654049;86;20972;-74
2021/07/07 04:26:41;;;;;;;6.10;4.90;;;;;;;21.34;77.65;100656.88;1657432;86;21132;-74
2021/07/07 04:29:08;;;;;;;5.40;4.90;;;;;;;21.37;77.15;100659.77;1650557;85;21052;-74
2021/07/07 04:31:35;;;;;;;5.30;4.70;;;;;;;21.42;76.83;100660.95;1661649;85;21060;-74
2021/07/07 04:34:03;;;;;;;7.00;5.33;;;;;;;21.51;76.69;100664.96;1659395;86;21707;-74
2021/07/07 04:36:30;;;;;;;9.03;5.70;;;;;;;21.56;76.05;100663.43;1655097;85;21028;-74
2021/07/07 04:38:57;;;;;;;6.50;4.90;;;;;;;21.62;75.41;100668.92;1657175;85;21087;-74
2021/07/07 04:41:23;;;;;;;5.70;4.90;;;;;;;21.70;75.28;100669.41;1664177;85;21131;-74
2021/07/07 04:43:50;;;;;;;5.83;5.07;;;;;;;21.82;75.26;100674.16;1656364;86;21021;-73
2021/07/07 04:46:17;;;;;;;6.20;5.60;;;;;;;21.89;74.34;100670.91;1659464;86;21628;-74
2021/07/07 04:48:45;;;;;;;8.63;5.53;;;;;;;21.99;74.64;100672.66;1659604;85;21073;-73
2021/07/07 04:51:13;;;;;;;7.73;5.83;;;;;;;22.13;74.63;100679.77;1663328;85;21166;-73
2021/07/07 04:53:40;;;;;;;7.27;5.20;;;;;;;22.24;74.70;100686.42;1658914;85;21136;-74
2021/07/07 04:56:07;;;;;;;5.83;5.20;;;;;;;22.33;73.35;100686.36;1650987;84;21060;-74
2021/07/07 04:58:36;;;;;;;5.20;4.70;;;;;;;22.39;72.77;100681.74;1645208;85;21122;-74
2021/07/07 05:01:03;;;;;;;5.33;4.43;;;;;;;22.42;71.71;100686.52;1659149;84;21124;-74
2021/07/07 05:03:30;;;;;;;6.90;5.13;;;;;;;22.49;71.43;100687.34;1659318;85;21072;-74
2021/07/07 05:05:57;;;;;;;6.23;4.80;;;;;;;22.54;70.53;100691.23;1656581;84;21778;-74
2021/07/07 05:08:25;;;;;;;6.10;4.90;;;;;;;22.59;69.04;100690.22;1655553;84;21114;-73
2021/07/07 05:10:52;;;;;;;7.83;4.77;;;;;;;22.66;68.74;100691.83;1647721;85;21544;-75
2021/07/07 05:13:19;;;;;;;5.63;4.83;;;;;;;22.80;68.43;100696.97;1642263;86;21064;-73
2021/07/07 05:15:47;;;;;;;5.17;4.30;;;;;;;22.98;67.47;100701.14;1649265;85;21116;-72
2021/07/07 05:18:15;;;;;;;5.83;4.40;;;;;;;23.19;65.56;100701.06;1629683;85;21537;-74
2021/07/07 05:20:43;;;;;;;6.67;4.03;;;;;;;23.37;64.38;100701.66;1660716;85;21068;-73
2021/07/07 05:23:10;;;;;;;4.30;3.67;;;;;;;23.55;62.29;100705.74;1657521;85;21571;-73
2021/07/07 05:25:39;;;;;;;4.60;3.70;;;;;;;23.72;62.86;100709.41;1648442;86;21177;-75
2021/07/07 05:28:06;;;;;;;5.13;3.60;;;;;;;23.80;61.35;100704.41;1619361;86;21084;-74
2021/07/07 05:30:33;;;;;;;4.50;3.80;;;;;;;23.79;60.88;100704.98;1646775;85;21151;-73
2021/07/07 05:33:00;;;;;;;5.10;3.67;;;;;;;23.84;61.67;100709.41;1670352;85;21030;-73
2021/07/07 05:35:28;;;;;;;4.97;3.17;;;;;;;23.94;60.69;100711.66;1661752;84;21044;-72
2021/07/07 05:37:54;;;;;;;4.97;3.30;;;;;;;24.13;60.84;100713.79;1660668;84;21582;-73
2021/07/07 05:40:21;;;;;;;3.90;3.10;;;;;;;24.32;59.17;100720.00;1662840;85;21046;-73
2021/07/07 05:42:54;;;;;;;6.17;3.00;;;;;;;24.46;56.23;100719.64;1655441;85;21165;-73
2021/07/07 05:45:24;;;;;;;4.87;2.80;;;;;;;24.50;55.06;100725.41;1630128;86;20965;-73
2021/07/07 05:47:50;;;;;;;4.40;2.70;;;;;;;24.51;55.45;100728.39;1660318;86;21072;-75
2021/07/07 05:50:18;;;;;;;5.03;2.80;;;;;;;24.46;53.49;100734.08;1647303;85;21064;-73
2021/07/07 05:52:45;;;;;;;3.27;2.60;;;;;;;24.42;55.17;100737.29;1664235;85;21078;-74
2021/07/07 05:55:13;;;;;;;4.10;2.50;;;;;;;24.40;54.66;100732.70;1660371;86;21108;-74
2021/07/07 05:57:40;;;;;;;3.07;2.40;;;;;;;24.37;53.25;100741.58;1661375;86;21177;-73
2021/07/07 06:00:15;;;;;;;4.30;2.87;;;;;;;24.32;53.98;100742.63;1660279;85;21072;-74
2021/07/07 06:02:43;;;;;;;3.47;2.87;;;;;;;24.18;54.25;100739.46;1657074;85;21126;-74
2021/07/07 06:05:11;;;;;;;3.93;2.90;;;;;;;24.00;56.04;100743.60;1653323;86;20984;-74
2021/07/07 06:07:39;;;;;;;4.90;3.03;;;;;;;23.83;56.95;100752.25;1661471;86;21078;-74
2021/07/07 06:10:09;;;;;;;3.70;3.13;;;;;;;23.77;58.20;100751.46;1660675;85;21104;-74
2021/07/07 06:12:35;;;;;;;4.87;3.20;;;;;;;23.70;58.97;100752.03;1664314;85;21107;-73
2021/07/07 06:15:03;;;;;;;5.33;3.30;;;;;;;23.68;59.66;100754.83;1661003;86;21218;-74
2021/07/07 06:17:29;;;;;;;5.47;3.40;;;;;;;23.68;59.80;100755.66;1663496;86;21085;-74
2021/07/07 06:19:56;;;;;;;5.03;3.70;;;;;;;23.75;58.62;100748.27;1657025;85;21110;-74
2021/07/07 06:22:23;;;;;;;4.63;3.60;;;;;;;23.88;57.94;100755.31;1659543;85;21548;-74
2021/07/07 06:24:50;;;;;;;5.00;3.80;;;;;;;24.09;57.85;100749.73;1651803;84;21032;-75
2021/07/07 06:27:16;;;;;;;5.60;3.80;;;;;;;24.29;57.41;100753.45;1638974;86;21100;-75
2021/07/07 06:29:43;;;;;;;5.43;3.67;;;;;;;24.43;56.86;100752.52;1652703;85;21158;-73
2021/07/07 06:32:10;;;;;;;4.13;2.50;;;;;;;24.57;56.30;100754.28;1660952;85;21240;-75
2021/07/07 06:34:37;;;;;;;4.77;2.60;;;;;;;24.71;51.03;100756.64;1657109;85;20989;-73
2021/07/07 06:37:04;;;;;;;4.20;2.43;;;;;;;24.78;49.98;100755.47;1651955;86;21632;-74
2021/07/07 06:39:32;;;;;;;4.40;2.23;;;;;;;24.85;47.83;100761.70;1654405;84;21551;-76
2021/07/07 06:41:58;;;;;;;4.77;2.20;;;;;;;24.93;49.12;100762.68;1656438;85;21056;-74
2021/07/07 06:44:25;;;;;;;3.57;2.00;;;;;;;25.04;48.67;100765.11;1663112;84;21196;-74
2021/07/07 06:46:52;;;;;;;3.97;2.33;;;;;;;25.14;47.33;100761.11;1657181;86;21705;-74
2021/07/07 06:49:19;;;;;;;3.83;2.20;;;;;;;25.19;48.95;100759.50;1649168;85;21127;-75
2021/07/07 06:51:46;;;;;;;3.83;2.17;;;;;;;25.23;48.88;100764.48;1658690;85;21142;-75
2021/07/07 06:54:13;;;;;;;6.40;2.60;;;;;;;25.25;48.00;100758.09;1660492;85;20977;-74
2021/07/07 06:56:39;;;;;;;3.83;2.03;;;;;;;25.26;47.49;100764.56;1644862;86;22658;-74
2021/07/07 06:59:06;;;;;;;7.73;2.60;;;;;;;25.31;47.42;100763.53;1660301;86;20965;-73
2021/07/07 07:01:33;;;;;;;6.70;2.50;;;;;;;25.32;48.79;100765.11;1657182;85;21123;-74
2021/07/07 07:04:00;;;;;;;4.47;2.70;;;;;;;25.36;49.59;100760.52;1662828;84;21140;-74
2021/07/07 07:06:29;;;;;;;4.03;2.53;;;;;;;25.36;47.63;100759.15;1655845;85;21059;-74
2021/07/07 07:08:58;;;;;;;5.33;2.50;;;;;;;25.35;48.01;100763.04;1633353;85;22635;-75
2021/07/07 07:11:27;;;;;;;5.73;2.60;;;;;;;25.33;49.26;100766.69;1661483;84;21155;-75
2021/07/07 07:13:54;;;;;;;5.03;2.73;;;;;;;25.41;49.75;100762.22;1640885;84;21143;-74
2021/07/07 07:16:21;;;;;;;4.50;2.30;;;;;;;25.53;49.63;100760.73;1661261;85;21174;-74
2021/07/07 07:18:48;;;;;;;7.23;3.00;;;;;;;25.67;49.86;100757.00;1650422;85;21574;-73
2021/07/07 07:21:16;;;;;;;4.87;2.90;;;;;;;25.75;48.90;100759.32;1666126;85;21123;-74
2021/07/07 07:23:44;;;;;;;9.33;2.70;;;;;;;25.71;48.49;100755.71;1661060;85;21641;-75
2021/07/07 07:26:10;;;;;;;5.20;2.47;;;;;;;25.57;48.43;100763.56;1655117;85;21099;-73
2021/07/07 07:28:37;;;;;;;3.97;2.83;;;;;;;25.43;49.33;100763.42;1651555;85;21151;-73
2021/07/07 07:31:04;;;;;;;4.23;2.70;;;;;;;25.35;50.24;100758.94;1653107;86;21123;-75
2021/07/07 07:33:31;;;;;;;3.30;2.60;;;;;;;25.27;51.33;100761.25;1658491;85;21123;-74
2021/07/07 07:35:58;;;;;;;3.40;2.67;;;;;;;25.28;50.95;100766.97;1660756;85;37660;-72
2021/07/07 07:38:37;;;;;;;4.07;2.60;;;;;;;25.29;51.27;100765.02;1659111;85;21116;-73
2021/07/07 07:40:57;;;;;;;6.17;2.97;;;;;;;25.30;50.24;100769.33;1648458;86;21142;-73
2021/07/07 07:43:25;;;;;;;4.20;2.73;;;;;;;25.32;50.82;100772.52;1658644;85;21647;-74
2021/07/07 07:45:55;;;;;;;4.10;2.60;;;;;;;25.32;50.71;100767.05;1667210;85;21155;-74
2021/07/07 07:48:23;;;;;;;4.87;3.00;;;;;;;25.36;51.51;100772.82;1654375;85;21143;-74
2021/07/07 07:50:51;;;;;;;4.77;2.60;;;;;;;25.42;51.63;100768.68;1654480;85;21100;-74
2021/07/07 07:53:17;;;;;;;3.80;2.70;;;;;;;25.53;50.45;100770.31;1655047;85;21638;-72
2021/07/07 07:55:45;;;;;;;3.60;2.70;;;;;;;25.69;49.02;100770.31;1656478;85;21111;-75
2021/07/07 07:58:22;;;;;;;6.50;2.57;;;;;;;25.90;50.93;100772.80;1657706;86;21198;-74
2021/07/07 08:00:47;;;;;;;7.10;2.67;;;;;;;26.16;50.19;100771.64;1660707;85;21115;-74
2021/07/07 08:03:14;;;;;;;4.13;2.87;;;;;;;26.39;48.39;100766.82;1648581;85;21083;-74
2021/07/07 08:05:42;;;;;;;5.03;2.77;;;;;;;26.53;46.59;100769.12;1659072;85;21112;-74
2021/07/07 08:08:10;;;;;;;3.73;2.50;;;;;;;26.54;46.61;100770.11;1659852;85;21078;-74
2021/07/07 08:10:37;;;;;;;5.67;2.80;;;;;;;26.54;45.80;100773.44;1657527;85;21126;-74
2021/07/07 08:13:04;;;;;;;4.97;2.50;;;;;;;26.54;47.37;100771.48;1660618;85;21218;-73
2021/07/07 08:15:32;;;;;;;3.30;2.50;;;;;;;26.60;46.65;100770.05;1660551;85;21601;-75
2021/07/07 08:17:59;;;;;;;5.37;2.80;;;;;;;26.69;47.01;100775.87;1648881;85;21076;-74
2021/07/07 08:20:27;;;;;;;5.23;2.70;;;;;;;26.68;46.95;100774.30;1658943;85;21022;-75
2021/07/07 08:22:55;;;;;;;4.60;2.50;;;;;;;26.69;46.17;100777.23;1655427;85;21910;-75
2021/07/07 08:25:22;;;;;;;3.73;2.60;;;;;;;26.68;46.90;100771.55;1661131;85;20991;-74
2021/07/07 08:27:48;;;;;;;6.70;2.77;;;;;;;26.68;45.68;100779.77;1663690;85;21960;-75
2021/07/07 08:30:16;;;;;;;7.50;3.27;;;;;;;26.59;46.41;100785.48;1651767;85;21005;-73
2021/07/07 08:32:43;;;;;;;6.27;2.70;;;;;;;26.62;48.08;100785.56;1662925;85;21076;-73
2021/07/07 08:35:10;;;;;;;4.17;2.50;;;;;;;26.81;48.05;100783.95;1660966;85;21103;-75
2021/07/07 08:37:37;;;;;;;3.87;2.50;;;;;;;26.97;46.42;100788.77;1649949;84;21122;-74
2021/07/07 08:40:05;;;;;;;2.97;2.23;;;;;;;27.01;44.50;100787.46;1637818;86;21107;-75
2021/07/07 08:42:35;;;;;;;3.10;2.27;;;;;;;26.99;46.58;100791.16;1664365;85;21000;-75
2021/07/07 08:45:10;;;;;;;4.30;2.40;;;;;;;27.07;46.94;100795.61;1662995;85;21575;-74
2021/07/07 08:47:38;;;;;;;5.50;2.50;;;;;;;27.19;45.95;100792.74;1650378;85;21135;-74
2021/07/07 08:50:08;;;;;;;3.63;2.43;;;;;;;27.31;45.82;100794.50;1654569;85;21092;-74
2021/07/07 08:52:38;;;;;;;6.58;2.60;;;;;;;27.34;44.89;100794.59;1658929;85;21076;-74
2021/07/07 08:55:09;;;;;;;3.87;2.50;;;;;;;27.29;45.47;100797.62;1661371;85;21086;-74
2021/07/07 08:57:43;;;;;;;4.87;2.60;;;;;;;27.27;45.72;100799.14;1656460;85;21032;-76
2021/07/07 09:00:24;;;;;;;5.93;2.80;;;;;;;27.24;44.96;100807.50;1639717;85;21116;-75
2021/07/07 09:02:58;;;;;;;3.40;2.10;;;;;;;27.21;45.52;100805.48;1662601;85;21059;-76
2021/07/07 09:05:25;;;;;;;4.03;2.40;;;;;;;27.26;46.21;100806.58;1658998;85;21159;-76
2021/07/07 09:07:54;;;;;;;3.47;2.10;;;;;;;27.27;45.58;100810.89;1624713;87;21043;-74
2021/07/07 09:10:31;;;;;;;3.73;2.20;;;;;;;27.26;45.94;100811.27;1662764;85;20981;-74
2021/07/07 09:13:13;;;;;;;4.47;2.20;;;;;;;27.23;44.33;100811.41;1649960;86;21606;-75
2021/07/07 09:15:40;;;;;;;4.30;2.50;;;;;;;27.20;45.69;100814.88;1649304;85;21473;-75
2021/07/07 09:18:07;;;;;;;3.63;2.20;;;;;;;27.13;44.50;100811.43;1659558;85;21622;-75
2021/07/07 09:20:40;;;;;;;4.87;2.40;;;;;;;27.06;45.34;100820.86;1663585;85;21484;-75
2021/07/07 09:23:23;;;;;;;4.40;2.37;;;;;;;27.01;45.12;100823.09;1661910;85;21132;-75
2021/07/07 09:26:01;;;;;;;4.17;2.67;;;;;;;26.95;45.68;100818.51;1654942;85;21844;-74
2021/07/07 09:28:34;;;;;;;3.97;2.23;;;;;;;26.90;45.09;100815.46;1651071;86;21104;-75
2021/07/07 09:31:04;;;;;;;4.37;2.43;;;;;;;26.88;44.06;100824.64;1661277;85;21100;-75
2021/07/07 09:33:42;;;;;;;3.57;2.40;;;;;;;26.95;44.22;100817.69;1655463;85;21040;-74
2021/07/07 09:36:23;;;;;;;4.80;2.20;;;;;;;27.08;45.26;100820.48;1633378;85;21076;-76
2021/07/07 09:38:51;;;;;;;3.07;2.27;;;;;;;27.28;44.65;100817.98;1659211;86;21104;-75
2021/07/07 09:41:18;;;;;;;5.90;2.30;;;;;;;27.34;42.57;100819.27;1648321;86;21021;-75
2021/07/07 09:43:53;;;;;;;3.53;2.50;;;;;;;27.28;43.63;100822.69;1660513;86;21096;-73
2021/07/07 09:46:22;;;;;;;3.83;2.20;;;;;;;27.28;43.51;100822.09;1658932;85;20969;-75
2021/07/07 09:48:50;;;;;;;3.30;2.10;;;;;;;27.32;42.88;100815.30;1671045;85;21439;-75
2021/07/07 09:51:17;;;;;;;4.00;2.10;;;;;;;27.45;42.02;100833.76;1649191;85;21484;-74
2021/07/07 09:53:45;;;;;;;4.33;2.10;;;;;;;27.56;43.27;100825.91;1665230;84;21062;-75
2021/07/07 09:56:11;;;;;;;2.70;1.90;;;;;;;27.63;43.17;100833.47;1658244;85;21669;-75
2021/07/07 09:58:39;;;;;;;4.50;2.33;;;;;;;27.69;42.55;100828.47;1670731;85;21016;-75
2021/07/07 10:01:05;;;;;;;4.13;2.30;;;;;;;27.75;41.93;100830.55;1660230;85;21163;-76
2021/07/07 10:03:32;;;;;;;3.53;2.10;;;;;;;27.82;43.18;100834.80;1664925;85;21157;-74
2021/07/07 10:06:02;;;;;;;3.87;2.30;;;;;;;27.98;43.41;100838.00;1659116;85;21108;-74
2021/07/07 10:08:30;;;;;;;3.47;2.23;;;;;;;28.14;41.93;100845.50;1657852;86;21069;-75
2021/07/07 10:10:58;;;;;;;5.57;2.00;;;;;;;28.23;43.00;100848.78;1654840;86;21555;-75
2021/07/07 10:13:26;;;;;;;4.20;2.40;;;;;;;28.29;42.49;100848.65;1661172;86;21123;-73
2021/07/07 10:15:53;;;;;;;4.33;2.40;;;;;;;28.38;41.62;100838.78;1660119;84;21382;-74
2021/07/07 10:18:20;;;;;;;4.57;2.27;;;;;;;28.51;41.36;100838.79;1661924;86;21214;-75
2021/07/07 10:20:47;;;;;;;5.93;2.30;;;;;;;28.58;40.21;100840.84;1657005;84;21106;-74
2021/07/07 10:23:14;;;;;;;7.37;2.60;;;;;;;28.55;40.92;100837.45;1659326;84;21028;-73
2021/07/07 10:25:41;;;;;;;6.57;2.60;;;;;;;28.57;40.84;100837.89;1647346;85;21115;-74
2021/07/07 10:28:10;;;;;;;3.30;2.23;;;;;;;28.61;41.96;100840.09;1664966;85;21187;-74
2021/07/07 10:30:55;;;;;;;2.90;2.03;;;;;;;28.71;42.62;100846.90;1652741;85;21100;-73
2021/07/07 10:33:23;;;;;;;3.07;2.13;;;;;;;28.83;43.19;100845.88;1663887;85;21041;-75
2021/07/07 10:35:50;;;;;;;4.77;2.57;;;;;;;29.01;42.94;100845.52;1663064;85;21729;-74
2021/07/07 10:38:17;;;;;;;3.93;2.13;;;;;;;29.19;41.71;100851.23;1662103;85;21091;-74
2021/07/07 10:40:51;;;;;;;3.70;2.30;;;;;;;29.26;41.80;100843.64;1662220;84;21274;-74
2021/07/07 10:43:28;;;;;;;2.98;1.90;;;;;;;29.26;40.90;100843.05;1665524;85;21402;-74
2021/07/07 10:45:55;;;;;;;4.10;2.27;;;;;;;29.27;40.28;100839.70;1661874;85;21552;-74
2021/07/07 10:48:31;;;;;;;3.97;2.53;;;;;;;29.15;41.51;100842.91;1660965;85;21040;-74
2021/07/07 10:51:29;;;;;;;2.98;2.25;;;;;;;29.05;41.00;100855.97;1665029;84;21623;-75
2021/07/07 10:54:00;;;;;;;3.83;2.42;;;;;;;28.88;40.60;100853.19;1662360;85;21520;-74
2021/07/07 10:56:44;;;;;;;7.22;2.40;;;;;;;28.54;40.54;100855.13;1633551;85;21138;-75
2021/07/07 10:59:42;;;;;;;5.17;2.40;;;;;;;28.16;41.12;100855.52;1658191;85;21072;-74
2021/07/07 11:02:22;;;;;;;7.30;2.63;;;;;;;27.87;42.46;100858.98;1665798;85;21015;-73
2021/07/07 11:04:56;;;;;;;3.33;2.10;;;;;;;27.70;42.21;100854.16;1665794;85;21064;-76
2021/07/07 11:07:39;;;;;;;6.50;2.00;;;;;;;27.70;43.24;100843.77;1659153;85;21186;-73
2021/07/07 11:10:23;;;;;;;3.50;2.30;;;;;;;27.83;41.78;100843.23;1662109;85;21048;-73
2021/07/07 11:12:59;;;;;;;5.90;2.20;;;;;;;28.06;41.05;100841.05;1660587;85;21107;-73
2021/07/07 11:15:26;;;;;;;6.33;2.50;;;;;;;28.24;40.10;100847.61;1650734;85;21182;-73
2021/07/07 11:18:03;;;;;;;4.50;2.00;;;;;;;28.29;38.80;100848.65;1655299;85;21638;-74
2021/07/07 11:20:28;;;;;;;;;;;;;;;28.31;39.62;100846.13;1650470;85;21753;-72
2021/07/07 11:23:05;;;;;;;4.97;2.13;;;;;;;28.37;38.43;100846.81;1664446;85;20227;-74
2021/07/07 11:25:33;;;;;;;4.47;2.07;;;;;;;28.44;39.51;100846.16;1668290;85;21575;-74
2021/07/07 11:28:03;;;;;;;4.57;2.40;;;;;;;28.58;40.03;100840.05;1657871;85;21056;-75
2021/07/07 11:30:30;;;;;;;5.03;2.07;;;;;;;28.63;38.22;100849.33;1656355;85;21123;-73
2021/07/07 11:33:00;;;;;;;4.20;1.90;;;;;;;28.65;38.28;100845.63;1658960;85;21961;-74